Time;durP1;ratioP1;P1;durP2;ratioP2;P2;SDS_P1;SDS_P2;PMS_P1;PMS_P2;Temp;Humidity;BMP_temperature;BMP_pressure;BME280_temperature;BME280_humidity;BME280_pressure;Samples;Min_cycle;Max_cycle;Signal;HPM_P1;HPM_P2
2023/12/13 00:03:01;;;;;;;8.95;5.00;;;15.50;73.90;;;;;;7804405;22;20017;-93
2023/12/13 00:06:04;;;;;;;11.00;5.28;;;15.50;73.90;;;;;;7832053;22;20007;-92
2023/12/13 00:09:08;;;;;;;13.63;7.40;;;15.40;74.00;;;;;;7753962;22;20019;-92
2023/12/13 00:12:10;;;;;;;13.45;6.03;;;15.40;74.20;;;;;;7806166;22;20010;-92
2023/12/13 00:15:12;;;;;;;13.77;6.72;;;15.40;74.20;;;;;;7805619;22;20038;-93
2023/12/13 00:18:16;;;;;;;11.32;6.40;;;15.30;74.20;;;;;;7839141;22;20011;-93
2023/12/13 00:21:19;;;;;;;12.60;5.97;;;15.30;74.60;;;;;;7780703;22;20003;-92
2023/12/13 00:24:22;;;;;;;10.88;5.75;;;15.30;74.60;;;;;;7780121;22;20007;-93
2023/12/13 00:27:24;;;;;;;12.52;6.18;;;15.20;74.70;;;;;;7806126;22;20083;-91
2023/12/13 00:30:33;;;;;;;12.10;5.88;;;15.20;74.70;;;;;;7808528;22;20573;-94
2023/12/13 00:33:34;;;;;;;11.75;5.68;;;15.30;74.80;;;;;;7780684;22;20007;-93
2023/12/13 00:36:36;;;;;;;11.88;5.25;;;15.30;74.80;;;;;;7807474;22;20003;-92
2023/12/13 00:39:37;;;;;;;7.05;3.83;;;15.40;74.70;;;;;;7755720;22;20041;-93
2023/12/13 00:42:40;;;;;;;8.88;4.43;;;15.40;74.60;;;;;;7779561;22;20019;-91
2023/12/13 00:45:43;;;;;;;13.98;6.05;;;15.40;74.70;;;;;;7773470;22;20034;-93
2023/12/13 00:48:50;;;;;;;9.23;4.88;;;15.40;74.80;;;;;;7755694;22;20022;-93
2023/12/13 00:51:56;;;;;;;9.15;4.60;;;15.40;74.70;;;;;;7780914;22;20019;-92
2023/12/13 00:55:00;;;;;;;7.57;4.63;;;15.40;74.50;;;;;;7780387;22;20075;-92
2023/12/13 00:58:02;;;;;;;10.93;4.35;;;15.40;74.50;;;;;;7780639;22;20007;-93
2023/12/13 01:01:04;;;;;;;6.10;4.00;;;15.20;74.20;;;;;;7780545;22;20093;-92
2023/12/13 01:04:08;;;;;;;8.88;5.10;;;15.40;74.40;;;;;;7782592;22;20010;-92
2023/12/13 01:07:12;;;;;;;10.32;5.13;;;15.30;74.30;;;;;;7778316;22;20097;-91
2023/12/13 01:10:13;;;;;;;8.05;5.15;;;15.30;74.40;;;;;;7780200;22;20015;-92
2023/12/13 01:13:15;;;;;;;8.88;5.38;;;15.30;74.30;;;;;;7780136;22;20011;-92
2023/12/13 01:16:17;;;;;;;8.50;5.15;;;15.20;74.50;;;;;;7779256;22;20017;-92
2023/12/13 01:19:20;;;;;;;10.70;5.38;;;15.20;74.70;;;;;;7780643;22;20031;-92
2023/12/13 01:22:21;;;;;;;10.20;5.57;;;15.20;74.70;;;;;;7779987;22;20015;-92
2023/12/13 01:25:22;;;;;;;10.00;5.25;;;15.20;74.60;;;;;;7780146;22;20094;-92
2023/12/13 01:28:23;;;;;;;7.80;4.80;;;15.20;74.50;;;;;;7778725;22;20080;-92
2023/12/13 01:31:28;;;;;;;10.35;4.55;;;15.20;74.50;;;;;;7780739;22;20038;-91
2023/12/13 01:34:31;;;;;;;9.70;5.68;;;15.10;74.70;;;;;;7806268;22;20082;-93
2023/12/13 01:37:32;;;;;;;11.85;5.25;;;15.20;74.80;;;;;;7778672;22;20018;-92
2023/12/13 01:40:33;;;;;;;6.03;4.15;;;15.10;74.80;;;;;;7779014;22;20010;-93
2023/12/13 01:43:35;;;;;;;9.80;5.43;;;15.10;74.80;;;;;;7780136;22;20008;-91
2023/12/13 01:46:39;;;;;;;7.88;5.07;;;15.10;75.00;;;;;;7834941;22;20079;-92
2023/12/13 01:49:51;;;;;;;9.75;5.68;;;15.40;75.10;;;;;;7807693;22;20387;-91
2023/12/13 01:52:56;;;;;;;7.72;5.20;;;15.20;74.80;;;;;;7732219;22;20352;-92
2023/12/13 01:55:57;;;;;;;12.73;5.35;;;15.20;74.80;;;;;;7779190;22;20015;-91
2023/12/13 01:58:58;;;;;;;9.60;5.05;;;15.20;74.90;;;;;;7779998;22;20018;-91
2023/12/13 02:02:01;;;;;;;9.80;5.22;;;15.10;75.00;;;;;;7782775;22;20015;-91
2023/12/13 02:05:03;;;;;;;9.05;5.00;;;15.00;75.00;;;;;;7788205;22;20018;-92
2023/12/13 02:08:07;;;;;;;8.32;5.18;;;15.00;75.20;;;;;;7815979;22;20061;-91
2023/12/13 02:11:14;;;;;;;9.27;5.68;;;15.00;75.40;;;;;;7818292;22;20048;-92
2023/12/13 02:14:15;;;;;;;9.48;5.07;;;15.00;75.40;;;;;;7784518;22;20018;-91
2023/12/13 02:17:16;;;;;;;10.50;5.38;;;15.00;75.30;;;;;;7801108;22;20011;-92
2023/12/13 02:20:19;;;;;;;6.55;4.40;;;15.00;75.30;;;;;;7817116;22;19995;-93
2023/12/13 02:23:24;;;;;;;10.50;5.32;;;15.00;75.40;;;;;;7819595;22;20018;-92
2023/12/13 02:26:25;;;;;;;8.13;4.97;;;15.20;75.60;;;;;;7820239;22;20083;-92
2023/12/13 02:29:52;;;;;;;14.50;5.82;;;15.00;75.50;;;;;;7715451;23;20010;-93
2023/12/13 02:32:54;;;;;;;13.45;4.75;;;15.00;75.60;;;;;;7667829;23;20019;-93
2023/12/13 02:35:57;;;;;;;9.38;5.40;;;15.10;75.60;;;;;;7665633;23;20027;-91
2023/12/13 02:39:02;;;;;;;7.70;4.70;;;15.30;75.60;;;;;;7690677;23;20012;-93
2023/12/13 02:42:04;;;;;;;8.38;5.68;;;15.00;75.20;;;;;;7666633;23;20016;-92
2023/12/13 02:45:11;;;;;;;9.77;5.85;;;15.00;75.40;;;;;;7666166;23;20128;-92
2023/12/13 02:48:17;;;;;;;11.88;5.68;;;15.00;75.40;;;;;;7699870;23;20032;-92
2023/12/13 02:51:19;;;;;;;9.25;5.05;;;15.00;75.50;;;;;;7691305;23;20091;-93
2023/12/13 02:54:21;;;;;;;8.13;4.60;;;14.90;75.40;;;;;;7641769;23;20024;-92
2023/12/13 02:57:22;;;;;;;8.68;4.47;;;14.90;75.40;;;;;;7666223;23;20136;-92
2023/12/13 03:00:23;;;;;;;7.03;4.03;;;14.90;75.40;;;;;;7690614;23;20012;-93
2023/12/13 03:03:24;;;;;;;9.10;5.00;;;14.90;75.40;;;;;;7665837;23;20012;-92
2023/12/13 03:06:25;;;;;;;8.70;5.10;;;14.90;75.40;;;;;;7691688;23;20047;-92
2023/12/13 03:09:26;;;;;;;10.30;4.72;;;14.90;75.40;;;;;;7692136;23;20112;-92
2023/12/13 03:12:28;;;;;;;11.10;5.25;;;14.90;75.40;;;;;;7713993;23;20004;-92
2023/12/13 03:15:34;;;;;;;9.07;5.22;;;15.00;75.50;;;;;;7688253;23;20009;-93
2023/12/13 03:18:34;;;;;;;7.95;4.57;;;15.00;75.50;;;;;;7662077;23;20051;-92
2023/12/13 03:21:39;;;;;;;7.55;4.57;;;15.00;75.30;;;;;;7662350;23;20059;-92
2023/12/13 03:24:40;;;;;;;8.82;4.68;;;15.00;75.20;;;;;;7664114;23;20023;-93
2023/12/13 03:27:44;;;;;;;7.05;4.55;;;15.10;75.20;;;;;;7833796;22;20011;-93
2023/12/13 03:30:46;;;;;;;9.13;4.28;;;15.00;75.20;;;;;;7817329;22;20469;-91
2023/12/13 03:33:47;;;;;;;7.25;4.30;;;15.10;75.10;;;;;;7816111;22;20011;-92
2023/12/13 03:36:51;;;;;;;10.00;4.82;;;15.10;75.00;;;;;;7814229;22;20062;-92
2023/12/13 03:39:53;;;;;;;6.95;4.03;;;15.10;74.80;;;;;;7815898;22;20365;-92
2023/12/13 03:42:54;;;;;;;7.15;4.55;;;15.10;74.70;;;;;;7788756;22;20356;-93
2023/12/13 03:45:55;;;;;;;9.52;4.80;;;15.10;74.80;;;;;;7814978;22;20010;-92
2023/12/13 03:48:57;;;;;;;9.68;4.15;;;15.10;74.70;;;;;;7816110;22;20436;-92
2023/12/13 03:51:57;;;;;;;6.97;4.00;;;15.10;74.40;;;;;;7815083;22;20021;-93
2023/12/13 03:54:59;;;;;;;8.02;4.40;;;15.00;74.30;;;;;;7841518;22;20046;-93
2023/12/13 03:58:01;;;;;;;8.50;4.80;;;15.00;74.30;;;;;;7816150;22;20034;-91
2023/12/13 04:01:02;;;;;;;6.72;3.78;;;15.00;74.50;;;;;;7813252;22;20036;-93
2023/12/13 04:04:03;;;;;;;7.90;4.50;;;15.00;74.60;;;;;;7814176;22;20014;-93
2023/12/13 04:07:08;;;;;;;7.60;4.15;;;15.00;74.60;;;;;;7812649;22;20413;-92
2023/12/13 04:10:09;;;;;;;9.75;4.38;;;15.00;74.40;;;;;;7814977;22;20297;-93
2023/12/13 04:13:11;;;;;;;11.07;4.80;;;15.00;74.40;;;;;;7815207;22;20007;-91
2023/12/13 04:16:15;;;;;;;9.02;4.70;;;15.00;74.30;;;;;;7807608;22;20039;-91
2023/12/13 04:19:16;;;;;;;8.18;4.25;;;15.00;74.30;;;;;;7775494;22;20064;-91
2023/12/13 04:35:28;;;;;;;8.25;4.88;;;14.70;74.80;;;;;;7827454;22;20106;-93
2023/12/13 04:38:33;;;;;;;8.70;4.90;;;14.70;75.00;;;;;;7776691;22;20488;-90
2023/12/13 04:41:38;;;;;;;7.85;4.43;;;14.70;75.00;;;;;;7752972;22;20019;-92
2023/12/13 04:44:42;;;;;;;9.38;4.43;;;14.70;75.10;;;;;;7801835;22;20015;-91
2023/12/13 04:47:43;;;;;;;7.10;4.30;;;14.80;75.10;;;;;;7776879;22;20007;-91
2023/12/13 04:50:44;;;;;;;11.10;5.28;;;14.80;75.00;;;;;;7775433;22;20027;-92
2023/12/13 04:53:47;;;;;;;7.78;4.38;;;14.80;74.90;;;;;;7778434;22;20069;-92
2023/12/13 04:56:48;;;;;;;11.27;5.13;;;14.80;75.00;;;;;;7779535;22;20025;-92
2023/12/13 04:59:51;;;;;;;10.30;5.30;;;14.80;75.00;;;;;;7778891;22;20144;-93
2023/12/13 05:02:52;;;;;;;8.80;4.72;;;14.80;75.00;;;;;;7779716;22;20011;-91
2023/12/13 05:05:56;;;;;;;9.73;5.20;;;14.80;75.00;;;;;;7810202;22;20015;-93
2023/12/13 05:08:57;;;;;;;10.73;4.60;;;14.80;75.10;;;;;;7780473;22;20015;-91
2023/12/13 05:12:01;;;;;;;9.95;5.18;;;14.90;75.00;;;;;;7779790;22;20059;-93
2023/12/13 05:15:04;;;;;;;9.82;5.10;;;14.90;75.00;;;;;;7780170;22;20018;-92
2023/12/13 05:18:06;;;;;;;9.93;5.22;;;14.90;75.10;;;;;;7777205;22;20125;-93
2023/12/13 05:21:08;;;;;;;8.05;4.90;;;14.80;75.10;;;;;;7754340;22;20073;-92
2023/12/13 05:24:10;;;;;;;8.98;5.57;;;14.80;75.00;;;;;;7804176;22;20440;-94
2023/12/13 05:27:11;;;;;;;7.40;4.40;;;14.80;75.00;;;;;;7777358;22;20010;-92
2023/12/13 05:30:12;;;;;;;8.43;4.20;;;14.80;75.00;;;;;;7778438;22;20056;-92
2023/12/13 05:33:14;;;;;;;10.27;4.72;;;14.80;75.00;;;;;;7788792;22;20026;-92
2023/12/13 05:36:15;;;;;;;6.47;4.43;;;14.70;74.90;;;;;;7789451;22;20011;-91
2023/12/13 05:39:17;;;;;;;10.82;5.57;;;14.70;74.90;;;;;;7783065;22;20011;-91
2023/12/13 05:42:20;;;;;;;6.45;3.72;;;14.70;75.20;;;;;;7807642;22;20114;-94
2023/12/13 05:45:23;;;;;;;9.30;4.30;;;14.80;75.40;;;;;;7756273;22;20121;-93
2023/12/13 05:48:24;;;;;;;8.80;4.80;;;14.70;75.20;;;;;;7805083;22;20006;-92
2023/12/13 05:51:25;;;;;;;8.10;4.40;;;14.70;75.00;;;;;;7778502;22;20011;-92
2023/12/13 05:54:26;;;;;;;6.63;3.75;;;14.80;75.10;;;;;;7777432;22;20389;-92
2023/12/13 05:57:27;;;;;;;8.63;4.68;;;14.70;74.90;;;;;;7778733;22;20011;-91
2023/12/13 06:00:32;;;;;;;8.38;5.20;;;14.70;74.80;;;;;;7778656;22;20011;-93
2023/12/13 06:03:33;;;;;;;6.95;4.35;;;14.80;74.90;;;;;;7778455;22;20008;-92
2023/12/13 06:06:34;;;;;;;8.27;4.70;;;14.80;74.90;;;;;;7777983;22;20007;-92
2023/12/13 06:09:36;;;;;;;8.00;4.60;;;14.90;74.80;;;;;;7778834;22;20030;-92
2023/12/13 06:12:39;;;;;;;9.75;4.95;;;14.90;74.70;;;;;;7779079;22;19991;-92
2023/12/13 06:15:47;;;;;;;8.32;4.55;;;14.90;74.70;;;;;;7774312;22;20160;-91
2023/12/13 06:18:48;;;;;;;8.60;4.32;;;14.90;74.70;;;;;;7779353;22;20314;-91
2023/12/13 06:21:49;;;;;;;7.47;4.30;;;14.80;74.60;;;;;;7779041;22;20022;-92
2023/12/13 06:24:52;;;;;;;10.23;4.45;;;14.80;74.80;;;;;;7805698;22;20015;-92
2023/12/13 06:27:55;;;;;;;6.65;3.67;;;14.80;74.90;;;;;;7804986;22;20110;-91
2023/12/13 06:30:56;;;;;;;7.32;4.70;;;14.80;75.00;;;;;;7781047;22;20026;-92
2023/12/13 06:34:00;;;;;;;8.68;4.40;;;14.80;74.90;;;;;;7806021;22;20018;-93
2023/12/13 06:37:03;;;;;;;7.97;3.35;;;14.80;75.00;;;;;;7780810;22;20098;-92
2023/12/13 06:40:07;;;;;;;3.65;2.38;;;14.80;75.00;;;;;;7780320;22;20011;-92
2023/12/13 06:43:08;;;;;;;4.50;2.55;;;14.70;75.10;;;;;;7779257;22;20376;-93
2023/12/13 06:46:09;;;;;;;3.80;1.70;;;14.60;75.10;;;;;;7778202;22;20383;-91
2023/12/13 06:49:12;;;;;;;5.93;2.30;;;14.60;75.00;;;;;;7778105;22;20083;-92
2023/12/13 06:52:15;;;;;;;5.63;2.53;;;14.60;75.20;;;;;;7834726;22;20007;-92
2023/12/13 06:55:18;;;;;;;4.32;3.00;;;14.60;75.10;;;;;;7757152;22;20064;-92
2023/12/13 06:58:20;;;;;;;5.90;3.63;;;14.70;75.10;;;;;;7806204;22;20034;-92
2023/12/13 07:01:23;;;;;;;20.42;4.90;;;14.70;75.00;;;;;;7779802;22;20206;-92
2023/12/13 07:04:24;;;;;;;7.82;4.95;;;14.70;75.00;;;;;;7779806;22;20092;-94
2023/12/13 07:07:26;;;;;;;8.27;4.47;;;14.70;75.00;;;;;;7780532;22;20003;-93
2023/12/13 07:10:29;;;;;;;8.88;4.90;;;14.70;75.00;;;;;;7779200;22;20051;-92
2023/12/13 07:13:39;;;;;;;9.45;4.28;;;14.90;75.10;;;;;;7782980;22;20086;-92
2023/12/13 07:16:46;;;;;;;5.82;3.88;;;14.80;75.00;;;;;;7809722;22;20011;-92
2023/12/13 07:19:51;;;;;;;9.27;5.05;;;14.80;74.90;;;;;;7780404;22;20132;-93
2023/12/13 07:22:53;;;;;;;8.10;4.53;;;14.80;75.00;;;;;;7782023;22;20018;-93
2023/12/13 07:25:58;;;;;;;6.53;4.13;;;14.80;75.00;;;;;;7836084;22;20007;-91
2023/12/13 07:29:01;;;;;;;5.60;3.40;;;15.00;75.00;;;;;;7782132;22;20417;-93
2023/12/13 07:32:04;;;;;;;7.50;3.95;;;14.80;74.80;;;;;;7757033;22;20011;-92
2023/12/13 07:35:06;;;;;;;8.27;4.63;;;14.80;74.60;;;;;;7784508;22;20045;-93
2023/12/13 07:38:08;;;;;;;9.13;4.85;;;14.80;74.50;;;;;;7718919;22;20031;-92
2023/12/13 07:41:14;;;;;;;11.02;5.13;;;14.80;74.40;;;;;;7769334;22;20512;-91
2023/12/13 07:44:18;;;;;;;7.75;4.50;;;14.90;74.40;;;;;;7768553;22;20023;-92
2023/12/13 07:47:19;;;;;;;10.45;4.75;;;14.90;74.40;;;;;;7744161;22;20074;-93
2023/12/13 07:50:21;;;;;;;9.90;5.47;;;14.80;75.00;;;;;;7774053;22;20019;-92
2023/12/13 07:53:22;;;;;;;7.72;4.25;;;15.00;74.30;;;;;;7750025;22;20008;-92
2023/12/13 07:56:28;;;;;;;10.30;4.72;;;14.80;74.00;;;;;;7745805;22;20110;-91
2023/12/13 07:59:44;;;;;;;11.57;5.25;;;15.00;73.90;;;;;;7746645;22;20034;-90
2023/12/13 08:02:46;;;;;;;10.23;4.72;;;14.90;74.00;;;;;;7771521;22;20034;-92
2023/12/13 08:05:49;;;;;;;8.63;3.65;;;14.90;74.10;;;;;;7771062;22;20012;-91
2023/12/13 08:08:51;;;;;;;6.95;3.95;;;14.90;74.20;;;;;;7742392;22;20015;-92
2023/12/13 08:11:56;;;;;;;5.57;3.67;;;14.90;74.20;;;;;;7767426;22;20076;-93
2023/12/13 08:15:05;;;;;;;6.80;3.60;;;14.90;74.00;;;;;;7743825;22;20008;-92
2023/12/13 08:18:18;;;;;;;6.50;3.97;;;14.90;74.00;;;;;;7770157;22;20011;-91
2023/12/13 08:21:43;;;;;;;9.32;5.00;;;15.00;73.90;;;;;;7769413;22;20440;-91
2023/12/13 08:24:48;;;;;;;8.00;4.07;;;15.00;73.80;;;;;;7685124;23;20312;-91
2023/12/13 08:27:49;;;;;;;7.78;3.92;;;15.10;73.60;;;;;;7657632;23;20012;-91
2023/12/13 08:30:58;;;;;;;14.27;5.07;;;15.10;73.50;;;;;;7628306;23;20046;-93
2023/12/13 08:34:00;;;;;;;6.10;3.90;;;15.20;73.50;;;;;;7668704;23;20699;-92
2023/12/13 08:37:02;;;;;;;6.93;4.00;;;15.20;73.10;;;;;;7667628;23;20016;-91
2023/12/13 08:40:04;;;;;;;9.90;4.63;;;15.30;73.00;;;;;;7644020;23;20074;-91
2023/12/13 08:43:09;;;;;;;13.45;6.28;;;15.30;72.60;;;;;;7667461;23;20013;-91
2023/12/13 08:46:12;;;;;;;17.67;8.85;;;15.30;72.50;;;;;;7693105;23;20012;-92
2023/12/13 08:49:20;;;;;;;15.23;6.57;;;15.20;72.10;;;;;;7652622;23;20009;-91
2023/12/13 08:52:21;;;;;;;19.27;9.38;;;15.20;71.90;;;;;;7659175;23;20004;-92
2023/12/13 08:55:27;;;;;;;10.90;6.13;;;15.20;72.10;;;;;;7763720;22;20011;-93
2023/12/13 08:58:28;;;;;;;9.88;5.70;;;15.10;72.20;;;;;;7729432;22;20030;-93
2023/12/13 09:01:30;;;;;;;7.88;4.38;;;15.30;72.30;;;;;;7748723;22;20065;-92
2023/12/13 09:04:31;;;;;;;9.65;4.38;;;15.20;72.10;;;;;;7745909;22;20012;-91
2023/12/13 09:07:34;;;;;;;6.00;3.40;;;15.20;72.10;;;;;;7740633;22;20095;-92
2023/12/13 09:10:41;;;;;;;8.60;4.03;;;15.20;72.10;;;;;;7767319;22;20324;-93
2023/12/13 09:13:48;;;;;;;9.93;4.30;;;15.30;72.00;;;;;;7793649;22;20085;-92
2023/12/13 09:16:49;;;;;;;8.55;4.47;;;15.20;72.00;;;;;;7741896;22;20085;-92
2023/12/13 09:19:50;;;;;;;12.07;4.88;;;15.20;71.90;;;;;;7738975;22;20047;-93
2023/12/13 09:22:57;;;;;;;6.20;3.88;;;15.20;71.90;;;;;;7742556;22;20486;-92
2023/12/13 09:26:05;;;;;;;9.23;4.05;;;15.10;71.90;;;;;;7767902;22;20004;-92
2023/12/13 09:29:08;;;;;;;7.28;4.20;;;15.30;72.10;;;;;;7742301;22;20104;-93
2023/12/13 09:32:12;;;;;;;5.75;3.60;;;15.20;72.10;;;;;;7766978;22;20089;-90
2023/12/13 09:35:13;;;;;;;5.85;3.67;;;15.10;72.00;;;;;;7756015;22;20069;-92
2023/12/13 09:38:16;;;;;;;7.88;3.83;;;15.10;72.00;;;;;;7765294;22;20027;-92
2023/12/13 09:41:35;;;;;;;10.40;3.95;;;15.10;72.00;;;;;;7765460;22;20363;-92
2023/12/13 09:44:39;;;;;;;5.68;3.38;;;15.00;72.10;;;;;;7739301;22;20039;-91
2023/12/13 09:47:42;;;;;;;5.63;3.10;;;15.30;72.10;;;;;;7795302;22;20023;-94
2023/12/13 09:50:47;;;;;;;6.45;3.92;;;15.20;72.10;;;;;;7794748;22;19996;-92
2023/12/13 09:53:49;;;;;;;14.45;3.70;;;15.30;72.10;;;;;;7743883;22;20081;-93
2023/12/13 09:56:50;;;;;;;3.10;2.03;;;15.50;72.70;;;;;;7766771;22;20008;-91
2023/12/13 09:59:54;;;;;;;2.95;1.95;;;15.90;72.20;;;;;;7771503;22;20012;-91
2023/12/13 10:02:57;;;;;;;4.82;2.95;;;16.20;71.20;;;;;;7767246;22;20019;-92
2023/12/13 10:06:02;;;;;;;11.07;3.58;;;16.60;68.90;;;;;;7771827;22;20023;-91
2023/12/13 10:09:08;;;;;;;7.95;3.70;;;16.70;68.40;;;;;;7793764;22;20019;-92
2023/12/13 10:12:14;;;;;;;5.85;3.20;;;17.10;68.20;;;;;;7762735;22;20008;-91
2023/12/13 10:15:17;;;;;;;10.13;3.17;;;17.30;67.00;;;;;;7762467;22;20081;-92
2023/12/13 10:18:23;;;;;;;7.88;2.80;;;17.50;66.60;;;;;;7789281;22;20004;-92
2023/12/13 10:21:24;;;;;;;4.97;3.28;;;17.50;66.00;;;;;;7762644;22;20363;-92
2023/12/13 10:24:28;;;;;;;7.32;4.07;;;17.40;65.20;;;;;;7767726;22;20031;-92
2023/12/13 10:27:29;;;;;;;4.90;3.47;;;17.40;65.40;;;;;;7767719;22;20095;-92
2023/12/13 10:30:34;;;;;;;7.90;4.25;;;17.20;65.60;;;;;;7719949;22;20016;-92
2023/12/13 10:33:37;;;;;;;7.43;3.97;;;17.20;65.70;;;;;;7774105;22;20003;-91
2023/12/13 10:36:42;;;;;;;9.98;4.57;;;17.00;65.50;;;;;;7801053;22;20049;-92
2023/12/13 10:39:54;;;;;;;6.25;3.53;;;16.90;65.70;;;;;;7828958;22;20011;-92
2023/12/13 10:43:10;;;;;;;7.20;4.00;;;16.70;66.00;;;;;;7784396;22;20038;-92
2023/12/13 10:46:16;;;;;;;8.73;4.68;;;16.60;66.30;;;;;;7803773;22;20037;-93
2023/12/13 10:49:22;;;;;;;7.40;4.20;;;16.50;66.30;;;;;;7785536;22;20014;-91
2023/12/13 10:52:28;;;;;;;7.22;4.55;;;16.40;66.40;;;;;;7809194;22;20062;-92
2023/12/13 10:55:33;;;;;;;7.55;4.75;;;16.20;66.60;;;;;;7811596;22;20033;-92
2023/12/13 10:58:38;;;;;;;9.13;4.30;;;16.00;67.00;;;;;;7784804;22;20119;-92
2023/12/13 11:01:42;;;;;;;6.85;3.70;;;15.90;67.40;;;;;;7810541;22;20016;-92
2023/12/13 11:04:46;;;;;;;7.50;3.58;;;15.80;67.80;;;;;;7834725;22;20007;-92
2023/12/13 11:07:48;;;;;;;6.80;3.17;;;15.70;68.00;;;;;;7759613;22;20019;-91
2023/12/13 11:11:14;;;;;;;3.38;1.73;;;15.60;68.20;;;;;;7786118;22;19999;-92
2023/12/13 11:14:17;;;;;;;4.78;1.98;;;15.50;68.20;;;;;;7784886;22;20072;-91
2023/12/13 11:17:21;;;;;;;3.13;1.20;;;15.50;67.50;;;;;;7790055;22;20064;-93
2023/12/13 11:20:24;;;;;;;2.95;1.83;;;15.60;67.00;;;;;;7783078;22;20015;-92
2023/12/13 11:23:26;;;;;;;5.97;1.50;;;15.60;66.40;;;;;;7805585;22;20084;-91
2023/12/13 11:26:33;;;;;;;5.43;3.00;;;15.80;66.10;;;;;;7806139;22;20021;-92
2023/12/13 11:29:35;;;;;;;4.75;3.08;;;15.90;64.90;;;;;;7805816;22;20421;-92
2023/12/13 11:32:48;;;;;;;6.57;3.03;;;16.00;63.90;;;;;;7833787;22;20007;-91
2023/12/13 11:35:51;;;;;;;5.90;2.90;;;16.10;64.30;;;;;;7806466;22;20239;-93
2023/12/13 11:38:54;;;;;;;7.20;3.50;;;16.20;64.60;;;;;;7785107;22;20007;-92
2023/12/13 11:42:02;;;;;;;8.93;3.45;;;16.30;64.80;;;;;;7813198;22;20046;-92
2023/12/13 11:45:05;;;;;;;6.80;3.33;;;16.40;64.70;;;;;;7808257;22;20136;-94
2023/12/13 11:48:08;;;;;;;8.23;3.42;;;16.60;64.70;;;;;;7783150;22;20029;-92
2023/12/13 11:51:10;;;;;;;5.28;2.80;;;16.80;64.70;;;;;;7759182;22;20015;-92
2023/12/13 11:54:16;;;;;;;9.45;3.88;;;16.90;64.30;;;;;;7809255;22;20025;-91
2023/12/13 11:57:20;;;;;;;5.53;2.83;;;17.00;64.10;;;;;;7757731;22;20026;-93
2023/12/13 12:00:23;;;;;;;3.30;2.08;;;17.10;63.80;;;;;;7809127;22;20011;-93
2023/12/13 12:03:29;;;;;;;5.30;2.13;;;17.00;63.40;;;;;;7780376;22;20065;-91
2023/12/13 12:06:33;;;;;;;;;;;17.10;63.30;;;;;;7783399;22;20098;-92
2023/12/13 12:09:37;;;;;;;3.45;1.65;;;17.10;63.20;;;;;;7786812;22;19911;-92
2023/12/13 12:12:39;;;;;;;4.80;1.63;;;17.10;63.00;;;;;;7785978;22;20081;-91
2023/12/13 12:15:42;;;;;;;4.30;2.17;;;17.10;63.00;;;;;;7813952;22;20467;-93
2023/12/13 12:18:43;;;;;;;5.90;2.72;;;17.10;62.90;;;;;;7781253;22;20137;-92
2023/12/13 12:21:45;;;;;;;2.65;1.55;;;17.20;62.80;;;;;;7779603;22;20042;-93
2023/12/13 12:24:49;;;;;;;2.95;1.67;;;17.40;62.50;;;;;;7778428;22;20007;-90
2023/12/13 12:27:50;;;;;;;3.17;1.90;;;17.30;62.20;;;;;;7782669;22;20037;-92
2023/12/13 12:30:52;;;;;;;4.68;2.05;;;17.40;61.80;;;;;;7755390;22;20030;-91
2023/12/13 12:33:57;;;;;;;5.20;1.98;;;17.50;61.40;;;;;;7782783;22;20371;-91
2023/12/13 12:37:10;;;;;;;3.53;1.75;;;17.50;61.30;;;;;;7803548;22;20022;-93
2023/12/13 12:40:13;;;;;;;3.60;2.15;;;17.70;61.30;;;;;;7756983;22;20015;-91
2023/12/13 12:43:20;;;;;;;6.10;2.55;;;17.70;61.40;;;;;;7756209;22;20015;-92
2023/12/13 12:46:26;;;;;;;6.57;2.47;;;17.60;61.20;;;;;;7804053;22;20411;-93
2023/12/13 12:49:27;;;;;;;5.13;2.00;;;17.40;61.00;;;;;;7756473;22;20011;-91
2023/12/13 12:52:30;;;;;;;6.57;2.60;;;17.50;61.20;;;;;;7778334;22;20003;-92
2023/12/13 12:55:34;;;;;;;5.95;2.30;;;17.40;61.10;;;;;;7804550;22;20022;-92
2023/12/13 12:58:37;;;;;;;4.68;2.35;;;17.40;60.90;;;;;;7804095;22;20035;-91
2023/12/13 13:01:43;;;;;;;3.50;2.00;;;17.30;60.60;;;;;;7833834;22;20011;-92
2023/12/13 13:04:47;;;;;;;5.38;1.52;;;17.20;60.70;;;;;;7780519;22;20022;-92
2023/12/13 13:07:52;;;;;;;2.30;1.58;;;17.00;60.40;;;;;;7809771;22;20014;-93
2023/12/13 13:10:58;;;;;;;2.28;1.38;;;16.90;60.50;;;;;;7803056;22;20027;-91
2023/12/13 13:14:05;;;;;;;3.20;1.88;;;16.80;60.80;;;;;;7804882;22;20350;-92
2023/12/13 13:17:08;;;;;;;5.55;2.38;;;16.70;60.90;;;;;;7780206;22;20025;-92
2023/12/13 13:20:15;;;;;;;4.68;1.90;;;16.60;61.00;;;;;;7778371;22;20066;-93
2023/12/13 13:23:33;;;;;;;10.52;3.15;;;16.50;61.30;;;;;;7802489;22;20011;-90
2023/12/13 13:26:35;;;;;;;4.25;2.38;;;16.50;61.40;;;;;;7780074;22;20012;-92
2023/12/13 13:29:37;;;;;;;5.80;2.25;;;16.50;61.70;;;;;;7777990;22;20109;-91
2023/12/13 13:32:38;;;;;;;2.58;1.55;;;16.40;62.00;;;;;;7778437;22;20018;-93
2023/12/13 13:35:49;;;;;;;0.57;0.45;;;16.30;62.30;;;;;;7780297;22;20011;-92
2023/12/13 13:38:52;;;;;;;1.67;0.65;;;16.20;62.10;;;;;;7756858;22;20015;-91
2023/12/13 13:41:54;;;;;;;0.63;0.43;;;16.00;60.70;;;;;;7804534;22;20007;-92
2023/12/13 13:44:58;;;;;;;0.43;0.28;;;15.90;60.70;;;;;;7778600;22;20018;-93
2023/12/13 13:48:18;;;;;;;0.43;0.40;;;15.80;60.70;;;;;;7834744;22;20003;-91
2023/12/13 13:51:26;;;;;;;0.17;0.15;;;15.80;60.80;;;;;;7779972;22;20012;-91
2023/12/13 13:54:28;;;;;;;0.50;0.30;;;15.70;60.80;;;;;;7755258;22;20007;-93
2023/12/13 13:57:29;;;;;;;2.20;0.50;;;15.80;60.30;;;;;;7779931;22;20007;-92
2023/12/13 14:00:33;;;;;;;2.50;0.57;;;15.80;60.00;;;;;;7777967;22;20038;-92
2023/12/13 14:03:36;;;;;;;0.57;0.40;;;15.90;59.30;;;;;;7776616;22;20041;-91
2023/12/13 14:06:37;;;;;;;1.23;0.47;;;15.90;59.10;;;;;;7776825;22;20011;-90
2023/12/13 14:09:40;;;;;;;1.20;0.50;;;15.90;58.70;;;;;;7777792;22;20019;-93
2023/12/13 14:12:41;;;;;;;0.40;0.30;;;15.90;58.80;;;;;;7781310;22;20018;-92
2023/12/13 14:15:43;;;;;;;1.85;1.30;;;15.90;58.80;;;;;;7784297;22;20007;-93
2023/12/13 14:18:47;;;;;;;1.52;1.00;;;15.90;59.00;;;;;;7780741;22;20105;-93
2023/12/13 14:21:48;;;;;;;2.08;0.57;;;16.00;59.20;;;;;;7780926;22;20011;-92
2023/12/13 14:24:49;;;;;;;3.15;0.82;;;16.10;59.10;;;;;;7781761;22;20057;-91
2023/12/13 14:27:52;;;;;;;1.25;0.52;;;16.10;59.00;;;;;;7784050;22;20528;-91
2023/12/13 14:30:55;;;;;;;6.25;0.90;;;16.20;59.00;;;;;;7782878;22;20135;-92
2023/12/13 14:33:57;;;;;;;2.13;0.63;;;16.20;59.00;;;;;;7810368;22;20574;-94
2023/12/13 14:36:58;;;;;;;2.58;1.65;;;16.10;59.10;;;;;;7783599;22;20057;-93
2023/12/13 14:40:00;;;;;;;0.90;0.70;;;16.10;59.30;;;;;;7785179;22;20070;-93
2023/12/13 14:43:06;;;;;;;0.95;0.82;;;16.00;59.50;;;;;;7809727;22;20003;-91
2023/12/13 14:46:08;;;;;;;4.03;1.38;;;16.00;59.60;;;;;;7782898;22;20015;-93
2023/12/13 14:49:10;;;;;;;1.98;1.10;;;15.70;59.60;;;;;;7785643;22;20022;-94
2023/12/13 14:52:12;;;;;;;2.70;0.70;;;15.90;60.00;;;;;;7811764;22;20011;-92
2023/12/13 14:55:19;;;;;;;1.60;0.80;;;15.80;60.00;;;;;;7837532;22;20029;-92
2023/12/13 14:58:43;;;;;;;3.13;1.42;;;15.80;60.00;;;;;;7786103;22;20014;-93
2023/12/13 15:02:04;;;;;;;2.88;1.05;;;15.70;60.00;;;;;;7788565;22;20098;-92
2023/12/13 15:05:10;;;;;;;3.45;1.13;;;15.70;60.00;;;;;;7764156;22;20090;-92
2023/12/13 15:08:35;;;;;;;3.40;1.57;;;15.70;59.80;;;;;;7787863;22;20451;-92
2023/12/13 15:11:42;;;;;;;3.00;1.73;;;15.60;59.70;;;;;;7818304;22;20080;-92
2023/12/13 15:14:45;;;;;;;12.50;1.92;;;15.60;59.60;;;;;;7740632;22;20051;-92
2023/12/13 15:17:48;;;;;;;3.42;1.25;;;15.60;59.70;;;;;;7789870;22;20071;-93
2023/12/13 15:20:50;;;;;;;2.15;1.20;;;15.60;59.80;;;;;;7812763;22;20007;-92
2023/12/13 15:23:54;;;;;;;2.10;1.15;;;15.60;59.90;;;;;;7761506;22;20042;-93
2023/12/13 15:26:55;;;;;;;3.03;1.40;;;15.60;60.00;;;;;;7794904;22;20013;-92
2023/12/13 15:29:58;;;;;;;5.10;2.00;;;15.50;60.20;;;;;;7794008;22;20078;-92
2023/12/13 15:33:02;;;;;;;1.95;1.08;;;15.40;60.40;;;;;;7819663;22;20035;-92
2023/12/13 15:36:03;;;;;;;4.50;1.45;;;15.40;60.70;;;;;;7792296;22;20004;-92
2023/12/13 15:39:10;;;;;;;7.32;1.20;;;15.40;60.90;;;;;;7786735;22;20011;-92
2023/12/13 15:42:14;;;;;;;2.75;1.65;;;15.30;61.10;;;;;;7815477;22;20035;-93
2023/12/13 15:45:17;;;;;;;9.13;1.15;;;15.30;61.20;;;;;;7790522;22;20022;-92
2023/12/13 15:48:20;;;;;;;4.43;1.65;;;15.20;61.30;;;;;;7810773;22;20015;-93
2023/12/13 15:51:21;;;;;;;2.20;1.27;;;15.20;61.50;;;;;;7760134;22;20003;-92
2023/12/13 15:54:24;;;;;;;4.40;1.52;;;15.10;61.60;;;;;;7813144;22;20485;-93
2023/12/13 15:57:26;;;;;;;5.63;2.08;;;15.00;61.60;;;;;;7792530;22;19999;-93
2023/12/13 16:00:31;;;;;;;4.50;1.60;;;14.80;61.80;;;;;;7791113;22;20014;-91
2023/12/13 16:03:32;;;;;;;2.28;1.45;;;14.90;62.10;;;;;;7785269;22;20037;-93
2023/12/13 16:06:38;;;;;;;2.38;1.73;;;14.90;62.40;;;;;;7839857;22;20011;-92
2023/12/13 16:09:39;;;;;;;3.20;1.42;;;14.90;62.80;;;;;;7759566;22;20037;-92